Huvudsida
METAR-TAF:

METAR-TAF

Flygplatser :

Fua'amotos internationella flygplats

Tongatapu, Tonga

latitud: 21-14S, longitud: 175-09W, höjd: 38 m

Aktuellt väderrapport

Denna rapport gjordes för 22 minuter sedan, klockan 11:00 UTC
Stilla vind
Temperatur 20°C
Fuktighet 94%
Tryck 1015 hPa
Sikt 10 km eller mer
Få moln på en höjd av 1600 ft
Brutna moln på en höjd av 4000 ft

METAR: NFTF 191100Z 00000KT 9999 FEW016 BKN040 20/19 Q1015

Tid: 00:22 (11:22 UTC)

Väderprognos

Denna rapport gjordes för 6 timmar och 6 minuter sedan, klockan 05:16 UTC
Prognos gäller från 19 kl. 06 UTC till 20 kl. 06 UTC
Vind 3 kt varierande vindriktning
Sikt 10 km eller mer
Få moln på en höjd av 1600 ft
Brutna moln på en höjd av 10000 ft

TAF: NFTF 190516Z 1906/2006 VRB03KT 9999 FEW016 BKN100

Aktuella väderrapporter och prognoser från 4000 flygplatser (METAR- och TAF-rapporter).

De tillgängliga stationerna syns som gula och röda prickar på kartan.

För musen över prickarna för att se namnen på stationerna.

Klicka sedan för att få väderrapporter och prognoser.

För att ändra kartan: Klicka på de gröna knapparna med ett svart kors på för att zooma in; den gröna knappen med ett streck på för att zooma ut; eller på de gröna pilarna för angränsande kartor.


METAR-TAF: